Eko 4 — SVAR8 — position and weather

sailwx.info

Track history (hours):
 
Tides and Currents Weather Stations Pressure Air Temp Water Temp Dewpoint Dewpoint Depression Visibility Wind Speed Wind Dir Waves Ship Positions

Eko 4

Last reported at 2015-Mar-02 09:23 UTC. Time now 2015-Mar-02 16:29 UTC.
Position N 37°38' E 023°44'.

Length 88 m; draft 5.5 m.

Type: Ship (hazmat cat A). MMSI: 240912000.

Date/timePositionNaut miles runAvg speedWind from/ knotsBaromVisibWave heightAir tempDewpointWater temp
2015-Mar-02 09:23N 37°38' E 023°44'8 9.7
2015-Mar-02 08:33N 37°45' E 023°39'9 9.2
2015-Mar-02 07:33N 37°54' E 023°37'8 5.7
2015-Mar-02 06:09N 38°01' E 023°32'0 0.0
2015-Mar-02 05:30N 38°01' E 023°32'0 0.0
2015-Mar-02 04:33N 38°01' E 023°32'0 0.0
2015-Mar-02 03:33N 38°01' E 023°32'3 0.1
2015-Mar-01 08:13N 38°02' E 023°36'3 4.3
2015-Mar-01 07:33N 38°01' E 023°32'2 1.8
2015-Mar-01 06:28N 37°60' E 023°33'5 5.1
2015-Mar-01 05:33N 37°56' E 023°36'2 2.3
2015-Mar-01 04:32N 37°54' E 023°33'0 0.0
2015-Mar-01 03:32N 37°54' E 023°33'0 0.0
2015-Mar-01 02:32N 37°54' E 023°33'0 0.0
2015-Mar-01 01:32N 37°54' E 023°33'0 0.0
2015-Mar-01 00:32N 37°54' E 023°33'0 0.5
2015-Feb-28 23:33N 37°54' E 023°34'9 9.1
2015-Feb-28 22:34N 37°47' E 023°41'  
2015-Feb-25 19:23N 37°39' E 023°43'8 9.6
2015-Feb-25 18:33N 37°46' E 023°39'9 9.1
2015-Feb-25 17:33N 37°55' E 023°36'7 6.1
2015-Feb-25 16:26N 38°01' E 023°35'0 0.2
2015-Feb-25 15:20N 38°02' E 023°35'1 0.0
2015-Feb-24 16:28N 38°02' E 023°36'4 4.6
2015-Feb-24 15:33N 37°58' E 023°33'5 4.7
2015-Feb-24 14:34N 37°54' E 023°36'10 9.5
2015-Feb-24 13:33N 37°46' E 023°42'  
2015-Feb-22 09:33N 37°38' E 023°46'9 8.5
2015-Feb-22 08:33N 37°45' E 023°39'9 8.8
2015-Feb-22 07:34N 37°53' E 023°36'9 7.2
2015-Feb-22 06:23N 38°01' E 023°33'0 0.0
2015-Feb-22 01:09N 38°01' E 023°33'1 0.1
2015-Feb-21 08:33N 38°01' E 023°34'5 5.1
2015-Feb-21 07:33N 37°56' E 023°35'6 6.4
2015-Feb-21 06:33N 37°50' E 023°39'  
Track history (hours):
 
Tides and Currents Weather Stations Pressure Air Temp Water Temp Dewpoint Dewpoint Depression Visibility Wind Speed Wind Dir Waves Ship Positions

Eko 4

Last reported at 2015-Mar-02 09:23 UTC. Time now 2015-Mar-02 16:29 UTC.
Position N 37°38' E 023°44'.

Length 88 m; draft 5.5 m.

Type: Ship (hazmat cat A). MMSI: 240912000.

Date/timePositionNaut miles runAvg speedWind from/ knotsBaromVisibWave heightAir tempDewpointWater temp
2015-Mar-02 09:23N 37°38' E 023°44'8 9.7
2015-Mar-02 08:33N 37°45' E 023°39'9 9.2
2015-Mar-02 07:33N 37°54' E 023°37'8 5.7
2015-Mar-02 06:09N 38°01' E 023°32'0 0.0
2015-Mar-02 05:30N 38°01' E 023°32'0 0.0
2015-Mar-02 04:33N 38°01' E 023°32'0 0.0
2015-Mar-02 03:33N 38°01' E 023°32'3 0.1
2015-Mar-01 08:13N 38°02' E 023°36'3 4.3
2015-Mar-01 07:33N 38°01' E 023°32'2 1.8
2015-Mar-01 06:28N 37°60' E 023°33'5 5.1
2015-Mar-01 05:33N 37°56' E 023°36'2 2.3
2015-Mar-01 04:32N 37°54' E 023°33'0 0.0
2015-Mar-01 03:32N 37°54' E 023°33'0 0.0
2015-Mar-01 02:32N 37°54' E 023°33'0 0.0
2015-Mar-01 01:32N 37°54' E 023°33'0 0.0
2015-Mar-01 00:32N 37°54' E 023°33'0 0.5
2015-Feb-28 23:33N 37°54' E 023°34'9 9.1
2015-Feb-28 22:34N 37°47' E 023°41'  
2015-Feb-25 19:23N 37°39' E 023°43'8 9.6
2015-Feb-25 18:33N 37°46' E 023°39'9 9.1
2015-Feb-25 17:33N 37°55' E 023°36'7 6.1
2015-Feb-25 16:26N 38°01' E 023°35'0 0.2
2015-Feb-25 15:20N 38°02' E 023°35'1 0.0
2015-Feb-24 16:28N 38°02' E 023°36'4 4.6
2015-Feb-24 15:33N 37°58' E 023°33'5 4.7
2015-Feb-24 14:34N 37°54' E 023°36'10 9.5
2015-Feb-24 13:33N 37°46' E 023°42'  
2015-Feb-22 09:33N 37°38' E 023°46'9 8.5
2015-Feb-22 08:33N 37°45' E 023°39'9 8.8
2015-Feb-22 07:34N 37°53' E 023°36'9 7.2
2015-Feb-22 06:23N 38°01' E 023°33'0 0.0
2015-Feb-22 01:09N 38°01' E 023°33'1 0.1
2015-Feb-21 08:33N 38°01' E 023°34'5 5.1
2015-Feb-21 07:33N 37°56' E 023°35'6 6.4
2015-Feb-21 06:33N 37°50' E 023°39'  

Dump ship's entire track history